Time;durP1;ratioP1;P1;durP2;ratioP2;P2;SDS_P1;SDS_P2;PMS_P1;PMS_P2;Temp;Humidity;BMP_temperature;BMP_pressure;BME280_temperature;BME280_humidity;BME280_pressure;Samples;Min_cycle;Max_cycle;Signal;HPM_P1;HPM_P2
2022/04/12 00:01:19;;;;;;;5.10;3.50;;;11.40;99.90;;;;;;7384029;19;20202;-75
2022/04/12 00:03:45;;;;;;;6.87;3.00;;;11.40;99.90;;;;;;7384999;19;20142;-74
2022/04/12 00:06:10;;;;;;;5.40;3.53;;;11.60;99.90;;;;;;7386369;19;20123;-74
2022/04/12 00:08:36;;;;;;;5.27;3.53;;;11.40;99.90;;;;;;7406472;19;20134;-74
2022/04/12 00:11:02;;;;;;;4.67;3.23;;;11.40;99.90;;;;;;7391146;19;20139;-75
2022/04/12 00:13:28;;;;;;;5.93;3.63;;;11.50;99.90;;;;;;7391222;19;20535;-76
2022/04/12 00:15:54;;;;;;;4.53;3.47;;;11.50;99.90;;;;;;7388658;19;20115;-76
2022/04/12 00:21:04;;;;;;;5.50;3.73;;;11.20;99.90;;;;;;7389170;19;20159;-74
2022/04/12 00:23:30;;;;;;;7.63;3.60;;;10.90;99.90;;;;;;7393988;19;20531;-76
2022/04/12 00:25:56;;;;;;;5.50;3.60;;;10.70;99.90;;;;;;7389258;19;20127;-76
2022/04/12 00:28:21;;;;;;;5.33;3.63;;;10.50;99.90;;;;;;7392543;19;20159;-74
2022/04/12 00:30:48;;;;;;;4.67;3.30;;;10.40;99.90;;;;;;7392347;19;20202;-76
2022/04/12 00:33:14;;;;;;;5.20;3.40;;;10.30;99.90;;;;;;7390189;19;20673;-74
2022/04/12 00:35:40;;;;;;;6.27;3.73;;;10.10;99.90;;;;;;7389115;19;20150;-77
2022/04/12 00:38:17;;;;;;;5.73;3.70;;;10.40;99.90;;;;;;7389542;19;20713;-73
2022/04/12 00:40:47;;;;;;;6.47;3.33;;;10.60;99.90;;;;;;7386702;19;20619;-74
2022/04/12 00:43:19;;;;;;;6.33;3.20;;;10.90;99.90;;;;;;7388807;19;20481;-76
2022/04/12 00:45:48;;;;;;;5.37;3.63;;;11.00;99.90;;;;;;7391623;19;20520;-76
2022/04/12 00:48:14;;;;;;;4.70;3.20;;;10.70;99.90;;;;;;7388434;19;20133;-76
2022/04/12 00:50:41;;;;;;;4.40;3.40;;;10.60;99.90;;;;;;7395822;19;20139;-75
2022/04/12 00:53:08;;;;;;;4.47;3.33;;;10.70;99.90;;;;;;7396084;19;20577;-76
2022/04/12 00:55:34;;;;;;;5.10;3.60;;;10.80;99.90;;;;;;7388238;19;20172;-77
2022/04/12 00:58:06;;;;;;;5.77;3.50;;;10.80;99.90;;;;;;7387043;19;20146;-77
2022/04/12 01:00:35;;;;;;;4.00;3.00;;;10.80;99.90;;;;;;7388080;19;20616;-73
2022/04/12 01:03:02;;;;;;;8.10;3.60;;;10.70;99.90;;;;;;7389427;19;20598;-76
2022/04/12 01:05:28;;;;;;;5.67;3.10;;;10.80;99.90;;;;;;7389626;19;20134;-74
2022/04/12 01:07:54;;;;;;;4.73;3.03;;;10.90;99.90;;;;;;7387539;19;20554;-74
2022/04/12 01:10:22;;;;;;;4.60;3.20;;;11.00;99.90;;;;;;7390446;19;20158;-76
2022/04/12 01:12:50;;;;;;;4.80;3.43;;;11.00;99.90;;;;;;7395214;19;20119;-75
2022/04/12 01:15:25;;;;;;;6.07;3.60;;;10.80;99.90;;;;;;7395779;19;20199;-76
2022/04/12 01:17:52;;;;;;;7.17;3.40;;;10.70;99.90;;;;;;7387674;19;20138;-76
2022/04/12 01:20:29;;;;;;;6.60;3.47;;;10.60;99.90;;;;;;7390883;19;20148;-76
2022/04/12 01:23:18;;;;;;;5.97;3.63;;;10.30;99.90;;;;;;7390570;19;20135;-75
2022/04/12 01:25:44;;;;;;;4.20;3.33;;;10.40;99.90;;;;;;7389390;19;20138;-74
2022/04/12 01:28:11;;;;;;;5.93;3.50;;;10.40;99.90;;;;;;7387480;19;20163;-74
2022/04/12 01:30:37;;;;;;;6.23;3.57;;;10.50;99.90;;;;;;7389553;19;20139;-76
2022/04/12 01:33:04;;;;;;;6.07;3.90;;;10.40;99.90;;;;;;7388493;19;20135;-75
2022/04/12 01:35:30;;;;;;;6.20;3.10;;;10.20;99.90;;;;;;7389320;19;20462;-74
2022/04/12 01:37:56;;;;;;;5.13;3.20;;;10.50;99.90;;;;;;7388482;19;20226;-75
2022/04/12 01:40:23;;;;;;;5.07;3.00;;;10.50;99.90;;;;;;7390252;19;20150;-76
2022/04/12 01:42:49;;;;;;;4.30;3.30;;;10.50;99.90;;;;;;7393640;19;20158;-75
2022/04/12 01:45:14;;;;;;;5.17;3.33;;;10.30;99.90;;;;;;7392853;19;20139;-73
2022/04/12 01:47:44;;;;;;;4.07;3.03;;;10.20;99.90;;;;;;7387556;19;20239;-76
2022/04/12 01:50:09;;;;;;;4.20;3.30;;;10.30;99.90;;;;;;7387890;19;20506;-76
2022/04/12 01:52:35;;;;;;;4.07;2.97;;;10.10;99.90;;;;;;7387271;19;20171;-74
2022/04/12 01:55:02;;;;;;;4.90;3.20;;;10.10;99.90;;;;;;7393642;19;20206;-76
2022/04/12 01:57:28;;;;;;;5.10;3.27;;;10.40;99.90;;;;;;7388815;19;20131;-74
2022/04/12 01:59:54;;;;;;;5.20;3.27;;;10.20;99.90;;;;;;7389271;19;20152;-74
2022/04/12 02:02:20;;;;;;;3.63;2.80;;;10.30;99.90;;;;;;7389251;19;20127;-75
2022/04/12 02:04:45;;;;;;;4.53;2.93;;;10.20;99.90;;;;;;7389096;19;20734;-73
2022/04/12 02:07:12;;;;;;;4.30;3.10;;;9.90;99.90;;;;;;7390934;19;20137;-76
2022/04/12 02:09:38;;;;;;;4.00;3.10;;;9.90;99.90;;;;;;7389800;19;20174;-74
2022/04/12 02:12:04;;;;;;;5.23;3.10;;;9.80;99.90;;;;;;7386158;19;20661;-76
2022/04/12 02:14:29;;;;;;;4.50;3.10;;;9.70;99.90;;;;;;7393488;19;20130;-76
2022/04/12 02:16:55;;;;;;;3.20;2.47;;;9.80;99.90;;;;;;7388327;19;20137;-76
2022/04/12 02:19:21;;;;;;;4.80;3.03;;;9.80;99.90;;;;;;7387051;19;20135;-74
2022/04/12 02:21:47;;;;;;;5.73;2.93;;;9.70;99.90;;;;;;7388401;19;20164;-75
2022/04/12 02:24:13;;;;;;;5.83;2.80;;;9.80;99.90;;;;;;7386961;19;20143;-76
2022/04/12 02:26:39;;;;;;;7.30;3.63;;;9.80;99.90;;;;;;7386753;19;20481;-74
2022/04/12 02:29:06;;;;;;;4.13;2.90;;;9.80;99.90;;;;;;7386209;19;20167;-74
2022/04/12 02:31:33;;;;;;;3.17;2.43;;;9.40;99.90;;;;;;7402986;19;20130;-76
2022/04/12 02:33:59;;;;;;;6.13;3.10;;;9.50;99.90;;;;;;7388328;19;20481;-76
2022/04/12 02:36:25;;;;;;;4.77;3.30;;;9.40;99.90;;;;;;7387375;19;20127;-74
2022/04/12 02:38:50;;;;;;;6.80;2.70;;;9.30;99.90;;;;;;7387773;19;20146;-73
2022/04/12 02:41:16;;;;;;;4.43;2.83;;;9.20;99.90;;;;;;7384426;19;20134;-73
2022/04/12 02:43:42;;;;;;;4.57;2.60;;;9.50;99.90;;;;;;7386027;19;20594;-75
2022/04/12 02:46:08;;;;;;;6.03;3.23;;;9.90;99.90;;;;;;7387601;19;20131;-75
2022/04/12 02:48:33;;;;;;;3.40;3.03;;;9.60;99.90;;;;;;7389969;19;20194;-76
2022/04/12 02:50:59;;;;;;;4.57;2.90;;;9.50;99.90;;;;;;7394633;19;20126;-74
2022/04/12 02:53:25;;;;;;;3.63;2.70;;;9.40;99.90;;;;;;7388284;19;20125;-75
2022/04/12 02:55:50;;;;;;;3.40;2.93;;;9.30;99.90;;;;;;7388869;19;20137;-76
2022/04/12 02:58:16;;;;;;;5.00;3.20;;;9.20;99.90;;;;;;7386754;19;20470;-74
2022/04/12 03:00:42;;;;;;;4.43;3.20;;;9.10;99.90;;;;;;7391410;19;20155;-76
2022/04/12 03:03:08;;;;;;;4.23;2.77;;;9.30;99.90;;;;;;7388877;19;20476;-75
2022/04/12 03:05:34;;;;;;;3.00;2.33;;;9.40;99.90;;;;;;7386910;19;20149;-74
2022/04/12 03:08:00;;;;;;;4.77;3.23;;;9.60;99.90;;;;;;7386710;19;20143;-74
2022/04/12 03:10:26;;;;;;;4.73;3.13;;;9.60;99.90;;;;;;7386836;19;20511;-75
2022/04/12 03:12:51;;;;;;;3.87;3.20;;;9.70;99.90;;;;;;7386985;19;20596;-75
2022/04/12 03:15:17;;;;;;;4.77;2.90;;;9.70;99.90;;;;;;7399929;19;20134;-75
2022/04/12 03:17:43;;;;;;;6.67;3.53;;;9.70;99.90;;;;;;7388656;19;20142;-73
2022/04/12 03:20:09;;;;;;;6.27;3.20;;;9.60;99.90;;;;;;7386475;19;20367;-75
2022/04/12 03:22:35;;;;;;;4.80;3.40;;;9.70;99.90;;;;;;7387250;19;20135;-76
2022/04/12 03:25:01;;;;;;;4.63;3.20;;;9.60;99.90;;;;;;7386356;19;20138;-77
2022/04/12 03:27:28;;;;;;;4.27;3.40;;;9.60;99.90;;;;;;7386322;19;20530;-75
2022/04/12 03:29:53;;;;;;;4.80;3.23;;;9.70;99.90;;;;;;7382902;19;20146;-76
2022/04/12 03:32:19;;;;;;;4.03;2.67;;;9.80;99.90;;;;;;7385176;19;20218;-76
2022/04/12 03:34:46;;;;;;;4.67;2.80;;;9.70;99.90;;;;;;7386975;19;20172;-73
2022/04/12 03:37:13;;;;;;;4.00;3.07;;;9.60;99.90;;;;;;7388985;19;20150;-77
2022/04/12 03:39:39;;;;;;;4.50;2.83;;;9.50;99.90;;;;;;7383915;19;20210;-76
2022/04/12 03:42:05;;;;;;;4.03;3.20;;;9.60;99.90;;;;;;7390113;19;20119;-73
2022/04/12 03:44:31;;;;;;;4.00;3.27;;;9.80;99.90;;;;;;7391599;19;20593;-76
2022/04/12 03:46:57;;;;;;;6.27;3.10;;;9.90;99.90;;;;;;7390839;19;20149;-76
2022/04/12 03:49:22;;;;;;;4.40;3.37;;;9.50;99.90;;;;;;7393565;19;20505;-76
2022/04/12 03:51:48;;;;;;;4.63;3.00;;;9.20;99.90;;;;;;7391833;19;20130;-74
2022/04/12 03:54:14;;;;;;;3.97;2.60;;;9.10;99.90;;;;;;7393303;19;20571;-74
2022/04/12 03:56:42;;;;;;;3.97;3.07;;;9.10;99.90;;;;;;7392966;19;20160;-75
2022/04/12 03:59:08;;;;;;;4.30;2.93;;;9.10;99.90;;;;;;7398150;19;20127;-73
2022/04/12 04:01:34;;;;;;;5.07;3.10;;;9.30;99.90;;;;;;7393216;19;20146;-75
2022/04/12 04:04:00;;;;;;;5.00;3.47;;;9.50;99.90;;;;;;7391369;19;20155;-75
2022/04/12 04:06:25;;;;;;;4.17;2.93;;;9.50;99.90;;;;;;7390379;19;20119;-73
2022/04/12 04:08:51;;;;;;;3.77;2.87;;;9.30;99.90;;;;;;7392970;19;20127;-75
2022/04/12 04:11:17;;;;;;;3.63;2.73;;;9.00;99.90;;;;;;7389774;19;20138;-73
2022/04/12 04:13:43;;;;;;;5.27;3.40;;;8.90;99.90;;;;;;7394892;19;20190;-74
2022/04/12 04:16:10;;;;;;;3.60;2.57;;;9.00;99.90;;;;;;7390713;19;20130;-74
2022/04/12 04:18:35;;;;;;;4.70;3.03;;;9.20;99.90;;;;;;7395892;19;20160;-74
2022/04/12 04:21:02;;;;;;;4.03;3.10;;;9.20;99.90;;;;;;7393696;19;20115;-75
2022/04/12 04:23:28;;;;;;;6.67;3.30;;;9.00;99.90;;;;;;7396864;19;20461;-74
2022/04/12 04:25:53;;;;;;;4.30;2.93;;;8.90;99.90;;;;;;7392849;19;20130;-74
2022/04/12 04:28:22;;;;;;;4.47;3.20;;;9.00;99.90;;;;;;7389896;19;20701;-75
2022/04/12 04:30:49;;;;;;;4.63;2.67;;;9.00;99.90;;;;;;7391401;19;20566;-74
2022/04/12 04:33:19;;;;;;;4.67;3.27;;;8.90;99.90;;;;;;7390622;19;20126;-74
2022/04/12 04:35:49;;;;;;;5.07;3.33;;;9.10;99.90;;;;;;7392141;19;20126;-75
2022/04/12 04:38:15;;;;;;;6.07;3.40;;;9.10;99.90;;;;;;7390469;19;20131;-76
2022/04/12 04:40:41;;;;;;;5.80;3.50;;;9.20;99.90;;;;;;7388090;19;20235;-77
2022/04/12 04:43:08;;;;;;;5.03;3.17;;;9.40;99.90;;;;;;7394503;19;20138;-76
2022/04/12 04:45:34;;;;;;;5.00;3.30;;;9.30;99.90;;;;;;7394893;19;20131;-75
2022/04/12 04:48:02;;;;;;;4.07;2.83;;;9.40;99.90;;;;;;7392469;19;20141;-76
2022/04/12 04:50:30;;;;;;;4.13;3.00;;;9.50;99.90;;;;;;7389917;19;20139;-74
2022/04/12 04:52:57;;;;;;;3.90;2.67;;;9.20;99.90;;;;;;7390910;19;20366;-77
2022/04/12 04:55:23;;;;;;;5.60;2.83;;;9.20;99.90;;;;;;7393317;19;20163;-76
2022/04/12 04:57:53;;;;;;;5.50;3.50;;;8.90;99.90;;;;;;7390643;19;20139;-75
2022/04/12 05:00:19;;;;;;;4.57;3.23;;;8.90;99.90;;;;;;7388976;19;20194;-74
2022/04/12 05:02:46;;;;;;;6.73;3.30;;;9.00;99.90;;;;;;7391646;19;20162;-76
2022/04/12 05:05:13;;;;;;;5.93;3.40;;;9.20;99.90;;;;;;7397099;19;20134;-76
2022/04/12 05:07:41;;;;;;;5.53;2.80;;;9.30;99.90;;;;;;7391524;19;20791;-74
2022/04/12 05:10:08;;;;;;;6.27;3.37;;;8.80;99.90;;;;;;7389750;19;20119;-74
2022/04/12 05:12:34;;;;;;;4.50;3.07;;;8.80;99.90;;;;;;7388742;19;20147;-74
2022/04/12 05:15:00;;;;;;;4.37;3.13;;;8.70;99.90;;;;;;7390432;19;20135;-76
2022/04/12 05:17:29;;;;;;;5.93;3.60;;;8.90;99.90;;;;;;7391424;19;20216;-75
2022/04/12 05:19:58;;;;;;;4.77;3.10;;;8.90;99.90;;;;;;7391108;19;20617;-74
2022/04/12 05:22:26;;;;;;;5.50;4.10;;;9.00;99.90;;;;;;7389178;19;20138;-76
2022/04/12 05:24:53;;;;;;;4.43;3.70;;;9.00;99.90;;;;;;7388608;19;20629;-75
2022/04/12 05:27:19;;;;;;;5.43;3.70;;;9.10;99.90;;;;;;7390089;19;20115;-72
2022/04/12 05:29:45;;;;;;;7.97;3.70;;;9.30;99.90;;;;;;7388572;19;20185;-73
2022/04/12 05:32:13;;;;;;;7.30;3.77;;;9.30;99.90;;;;;;7389363;19;20773;-73
2022/04/12 05:34:40;;;;;;;5.67;3.83;;;9.30;99.90;;;;;;7393350;19;20145;-75
2022/04/12 05:37:06;;;;;;;5.57;3.50;;;9.30;99.90;;;;;;7389659;19;20146;-72
2022/04/12 05:39:32;;;;;;;6.00;3.40;;;9.00;99.90;;;;;;7391150;19;20174;-74
2022/04/12 05:42:02;;;;;;;5.13;3.30;;;9.00;99.90;;;;;;7390609;19;20214;-73
2022/04/12 05:44:28;;;;;;;6.00;3.90;;;8.80;99.90;;;;;;7390901;19;20154;-76
2022/04/12 05:46:55;;;;;;;5.13;3.80;;;8.90;99.90;;;;;;7390569;19;20131;-72
2022/04/12 05:49:21;;;;;;;5.20;3.83;;;8.90;99.90;;;;;;7393652;19;20130;-76
2022/04/12 05:51:47;;;;;;;6.03;3.87;;;9.20;99.90;;;;;;7388413;19;20149;-74
2022/04/12 05:54:17;;;;;;;7.97;3.60;;;9.40;99.90;;;;;;7387574;19;20153;-75
2022/04/12 05:56:43;;;;;;;5.43;3.23;;;9.10;99.90;;;;;;7390387;19;20126;-72
2022/04/12 05:59:09;;;;;;;5.13;3.80;;;9.40;99.90;;;;;;7389889;19;20135;-76
2022/04/12 06:01:35;;;;;;;6.17;3.63;;;9.40;99.90;;;;;;7390394;19;20256;-76
2022/04/12 06:04:01;;;;;;;4.97;3.63;;;9.30;99.90;;;;;;7389393;19;20617;-79
2022/04/12 06:06:27;;;;;;;8.07;3.83;;;9.40;99.90;;;;;;7390659;19;20138;-77
2022/04/12 06:08:54;;;;;;;4.40;3.50;;;9.60;99.90;;;;;;7388628;19;20211;-73
2022/04/12 06:11:20;;;;;;;8.47;4.17;;;9.90;99.90;;;;;;7387980;19;20147;-74
2022/04/12 06:13:45;;;;;;;5.37;3.70;;;10.00;99.90;;;;;;7391274;19;20139;-74
2022/04/12 06:16:11;;;;;;;10.57;4.43;;;9.70;99.90;;;;;;7388182;19;20594;-74
2022/04/12 06:18:38;;;;;;;9.13;4.43;;;9.70;99.90;;;;;;7390911;19;20119;-72
2022/04/12 06:21:04;;;;;;;5.57;3.60;;;9.90;99.90;;;;;;7389668;19;20131;-72
2022/04/12 06:23:29;;;;;;;7.67;3.93;;;10.00;99.90;;;;;;7387915;19;20134;-74
2022/04/12 06:25:55;;;;;;;9.53;4.30;;;10.30;99.90;;;;;;7387982;19;20541;-74
2022/04/12 06:28:21;;;;;;;6.17;3.83;;;10.60;99.90;;;;;;7386534;19;20135;-73
2022/04/12 06:30:50;;;;;;;6.07;4.43;;;10.60;99.90;;;;;;7386066;19;20150;-73
2022/04/12 06:33:15;;;;;;;5.83;4.13;;;10.50;99.90;;;;;;7388556;19;20130;-71
2022/04/12 06:35:42;;;;;;;6.03;3.60;;;10.50;99.90;;;;;;7389807;19;20115;-77
2022/04/12 06:38:09;;;;;;;5.17;4.40;;;10.50;99.90;;;;;;7403856;19;20224;-75
2022/04/12 06:40:35;;;;;;;9.27;4.70;;;10.20;99.90;;;;;;7386516;19;20272;-75
2022/04/12 06:43:01;;;;;;;6.60;4.30;;;10.50;99.90;;;;;;7387369;19;20127;-78
2022/04/12 06:45:27;;;;;;;10.00;4.50;;;10.60;99.90;;;;;;7388739;19;20909;-76
2022/04/12 06:47:58;;;;;;;8.33;4.10;;;10.70;99.90;;;;;;7387913;19;20237;-82
2022/04/12 06:50:26;;;;;;;6.60;4.47;;;10.80;99.90;;;;;;7388301;19;20135;-79
2022/04/12 06:52:53;;;;;;;7.30;4.07;;;10.80;99.90;;;;;;7387547;19;20135;-72
2022/04/12 06:55:19;;;;;;;5.77;3.97;;;10.90;99.90;;;;;;7390758;19;20246;-72
2022/04/12 06:57:45;;;;;;;5.77;3.80;;;11.10;99.90;;;;;;7389651;19;20597;-74
2022/04/12 07:00:12;;;;;;;8.07;4.43;;;11.30;99.90;;;;;;7394813;19;20146;-79
2022/04/12 07:02:39;;;;;;;6.77;4.23;;;11.30;99.90;;;;;;7388053;19;20181;-74
2022/04/12 07:05:07;;;;;;;7.90;4.43;;;11.50;99.90;;;;;;7391989;19;20162;-73
2022/04/12 07:07:36;;;;;;;7.00;4.87;;;11.60;99.90;;;;;;7388844;19;20135;-77
2022/04/12 07:10:07;;;;;;;6.73;4.13;;;11.60;99.90;;;;;;7389333;19;20501;-72
2022/04/12 07:12:33;;;;;;;5.63;3.90;;;11.60;99.90;;;;;;7386896;19;20601;-71
2022/04/12 07:14:59;;;;;;;6.37;4.43;;;11.90;99.90;;;;;;7388149;19;20146;-79
2022/04/12 07:17:25;;;;;;;9.30;4.27;;;12.00;99.90;;;;;;7396913;19;20138;-79
2022/04/12 07:19:50;;;;;;;7.03;4.10;;;12.00;99.90;;;;;;7397440;19;20707;-72
2022/04/12 07:22:16;;;;;;;7.43;3.87;;;12.30;99.90;;;;;;7394985;19;20147;-73
2022/04/12 07:24:42;;;;;;;7.13;4.17;;;12.80;99.90;;;;;;7395478;19;20139;-71
2022/04/12 07:27:08;;;;;;;6.07;4.43;;;13.00;99.90;;;;;;7392598;19;20142;-78
2022/04/12 07:29:34;;;;;;;6.77;4.40;;;13.30;99.90;;;;;;7392541;19;20149;-74
2022/04/12 07:32:00;;;;;;;5.53;3.80;;;13.50;99.90;;;;;;7390473;19;20131;-80
2022/04/12 07:34:26;;;;;;;8.53;4.27;;;13.70;99.90;;;;;;7394033;19;20142;-79
2022/04/12 07:36:55;;;;;;;6.43;4.03;;;13.90;99.90;;;;;;7392208;19;20131;-77
2022/04/12 07:39:22;;;;;;;6.50;4.00;;;14.00;99.90;;;;;;7393588;19;20146;-81
2022/04/12 07:41:48;;;;;;;7.17;4.10;;;14.40;99.90;;;;;;7396977;19;20130;-73
2022/04/12 07:44:15;;;;;;;6.38;3.92;;;14.70;99.90;;;;;;7394146;19;20218;-78
2022/04/12 07:46:41;;;;;;;6.50;4.10;;;15.10;99.90;;;;;;7392904;19;20605;-72
2022/04/12 07:49:07;;;;;;;5.45;3.67;;;15.70;99.90;;;;;;7392448;19;20659;-79
2022/04/12 07:51:34;;;;;;;4.22;3.15;;;16.00;99.90;;;;;;7391924;19;20134;-78
2022/04/12 07:54:03;;;;;;;3.92;3.13;;;16.20;99.30;;;;;;7393146;19;20138;-78
2022/04/12 07:56:33;;;;;;;5.75;3.25;;;16.50;99.20;;;;;;7393467;19;20131;-72
2022/04/12 07:59:00;;;;;;;3.42;3.05;;;16.70;98.50;;;;;;7391872;19;20147;-72
2022/04/12 08:01:26;;;;;;;3.65;2.72;;;17.00;98.00;;;;;;7397014;19;20123;-70
2022/04/12 08:03:52;;;;;;;4.65;3.13;;;17.20;97.70;;;;;;7397313;19;20471;-71
2022/04/12 08:06:19;;;;;;;3.75;2.88;;;17.50;96.70;;;;;;7392909;19;20127;-75
2022/04/12 08:08:45;;;;;;;4.25;3.03;;;17.50;96.30;;;;;;7390867;19;20225;-71
2022/04/12 08:11:11;;;;;;;4.35;2.72;;;17.40;96.60;;;;;;7390074;19;20198;-76
2022/04/12 08:13:37;;;;;;;4.28;2.88;;;17.40;96.90;;;;;;7392284;19;20131;-78
2022/04/12 08:16:04;;;;;;;4.40;3.35;;;17.20;96.70;;;;;;7390784;19;20123;-78
2022/04/12 08:18:31;;;;;;;5.03;2.92;;;17.10;95.40;;;;;;7396545;19;20457;-73
2022/04/12 08:20:57;;;;;;;8.32;3.03;;;16.80;96.10;;;;;;7396760;19;20134;-78
2022/04/12 08:23:24;;;;;;;4.82;3.50;;;16.50;96.20;;;;;;7398613;19;20127;-72
2022/04/12 08:25:51;;;;;;;8.05;4.95;;;16.50;96.50;;;;;;7391531;19;20149;-79
2022/04/12 08:28:17;;;;;;;6.07;4.15;;;16.50;96.60;;;;;;7388879;19;20173;-77
2022/04/12 08:30:43;;;;;;;7.82;4.13;;;16.60;96.60;;;;;;7390051;19;20622;-73
2022/04/12 08:33:09;;;;;;;4.63;3.75;;;16.80;96.80;;;;;;7391594;19;20130;-72
2022/04/12 08:35:35;;;;;;;5.35;3.28;;;16.90;96.70;;;;;;7389678;19;20127;-73
2022/04/12 08:38:01;;;;;;;5.10;3.05;;;16.90;96.50;;;;;;7388205;19;20131;-77
2022/04/12 08:40:27;;;;;;;4.10;2.78;;;16.90;96.00;;;;;;7388131;19;20186;-71
2022/04/12 08:42:54;;;;;;;4.65;3.08;;;16.80;96.40;;;;;;7391700;19;20144;-72
2022/04/12 08:45:20;;;;;;;4.88;3.72;;;16.80;96.60;;;;;;7405131;19;20139;-75
2022/04/12 08:47:46;;;;;;;7.72;3.42;;;16.80;96.60;;;;;;7398540;19;20601;-77
2022/04/12 08:50:12;;;;;;;4.85;3.17;;;16.60;96.90;;;;;;7391349;19;20148;-72
2022/04/12 08:52:38;;;;;;;7.20;3.35;;;16.70;97.30;;;;;;7389411;19;20134;-71
2022/04/12 08:55:06;;;;;;;7.40;5.47;;;16.60;97.00;;;;;;7392822;19;20147;-77
2022/04/12 08:57:32;;;;;;;7.75;3.80;;;16.50;97.20;;;;;;7390728;19;20134;-77
2022/04/12 08:59:58;;;;;;;6.13;3.60;;;16.60;97.30;;;;;;7389316;19;20135;-71
2022/04/12 09:02:24;;;;;;;7.22;3.42;;;16.50;97.30;;;;;;7389732;19;20170;-77
2022/04/12 09:04:50;;;;;;;5.57;3.50;;;16.50;97.50;;;;;;7391917;19;20123;-78
2022/04/12 09:07:17;;;;;;;6.05;3.25;;;16.60;97.40;;;;;;7392279;19;20620;-71
2022/04/12 09:09:44;;;;;;;4.50;2.83;;;16.70;97.50;;;;;;7391039;19;20127;-78
2022/04/12 09:12:14;;;;;;;3.42;2.72;;;16.90;97.00;;;;;;7387851;19;20164;-75
2022/04/12 09:14:52;;;;;;;4.05;2.78;;;16.80;96.50;;;;;;7394289;19;20123;-76
2022/04/12 09:17:34;;;;;;;5.07;2.80;;;16.60;96.70;;;;;;7388523;19;20158;-76
2022/04/12 09:20:00;;;;;;;5.25;3.40;;;16.60;96.90;;;;;;7391081;19;20238;-78
2022/04/12 09:22:28;;;;;;;4.43;3.25;;;16.60;97.10;;;;;;7388801;19;20226;-71
2022/04/12 09:25:05;;;;;;;5.82;3.30;;;16.60;97.20;;;;;;7390566;19;20138;-71
2022/04/12 09:27:34;;;;;;;5.25;2.80;;;16.60;97.10;;;;;;7392014;19;20138;-73
2022/04/12 09:30:01;;;;;;;6.68;3.15;;;16.60;97.40;;;;;;7386479;19;20194;-71
2022/04/12 09:32:29;;;;;;;5.82;3.10;;;16.90;97.10;;;;;;7387184;19;20150;-73
2022/04/12 09:34:56;;;;;;;3.95;2.72;;;17.10;96.40;;;;;;7389955;19;20261;-77
2022/04/12 09:37:27;;;;;;;6.40;2.80;;;17.10;96.30;;;;;;7388954;19;20145;-77
2022/04/12 09:39:59;;;;;;;4.55;2.85;;;17.10;96.00;;;;;;7386556;19;20134;-75
2022/04/12 09:42:37;;;;;;;3.55;2.35;;;17.10;96.10;;;;;;7387609;19;20151;-79
2022/04/12 09:45:08;;;;;;;4.40;2.70;;;17.20;96.10;;;;;;7387541;19;20130;-76
2022/04/12 09:47:34;;;;;;;4.60;2.35;;;17.10;95.80;;;;;;7386354;19;20170;-77
2022/04/12 09:50:01;;;;;;;4.43;2.25;;;17.20;95.90;;;;;;7393451;19;20131;-72
2022/04/12 09:52:27;;;;;;;4.38;2.35;;;17.30;95.60;;;;;;7385666;19;20597;-72
2022/04/12 09:54:54;;;;;;;3.60;2.20;;;17.30;95.20;;;;;;7391736;19;20131;-70
2022/04/12 09:57:22;;;;;;;5.18;2.70;;;17.50;95.30;;;;;;7386310;19;20147;-72
2022/04/12 09:59:48;;;;;;;4.22;2.45;;;17.60;95.20;;;;;;7387312;19;20231;-78
2022/04/12 10:02:15;;;;;;;3.22;2.00;;;17.80;94.90;;;;;;7389595;19;20170;-77
2022/04/12 10:04:43;;;;;;;3.53;2.08;;;17.90;94.60;;;;;;7388337;19;20126;-78
2022/04/12 10:07:11;;;;;;;5.45;3.10;;;18.00;94.40;;;;;;7386022;19;20876;-73
2022/04/12 10:09:40;;;;;;;7.03;4.10;;;18.00;94.40;;;;;;7391386;19;20122;-75
2022/04/12 10:12:06;;;;;;;4.15;2.08;;;18.00;94.50;;;;;;7399222;19;20148;-71
2022/04/12 10:14:33;;;;;;;2.58;1.80;;;18.10;94.30;;;;;;7392893;19;20134;-78
2022/04/12 10:17:01;;;;;;;2.63;1.95;;;18.20;94.50;;;;;;7385930;19;20518;-71
2022/04/12 10:19:29;;;;;;;4.15;2.25;;;18.40;94.50;;;;;;7386401;19;20539;-77
2022/04/12 10:21:55;;;;;;;2.75;1.77;;;18.50;93.90;;;;;;7386678;19;20549;-72
2022/04/12 10:24:22;;;;;;;5.15;2.50;;;18.50;93.70;;;;;;7387608;19;20126;-77
2022/04/12 10:26:50;;;;;;;4.60;2.50;;;18.60;93.70;;;;;;7386167;19;20139;-79
2022/04/12 10:29:16;;;;;;;3.13;2.30;;;18.60;93.80;;;;;;7384400;19;20186;-79
2022/04/12 10:31:54;;;;;;;3.25;1.85;;;18.60;94.00;;;;;;7387258;19;20137;-75
2022/04/12 10:34:20;;;;;;;2.55;1.73;;;18.70;93.10;;;;;;7396246;19;20123;-77
2022/04/12 10:36:55;;;;;;;4.05;1.63;;;18.60;92.80;;;;;;7388872;19;20222;-79
2022/04/12 10:39:35;;;;;;;2.67;1.67;;;19.00;92.10;;;;;;7385122;19;20146;-77
2022/04/12 10:42:07;;;;;;;1.98;1.50;;;19.00;92.10;;;;;;7386340;19;20157;-71
2022/04/12 10:44:42;;;;;;;1.70;1.45;;;19.00;91.40;;;;;;7388048;19;20138;-69
2022/04/12 10:47:27;;;;;;;2.75;1.92;;;18.90;92.10;;;;;;7385181;19;20134;-71
2022/04/12 10:49:58;;;;;;;2.30;1.55;;;18.90;92.20;;;;;;7386383;19;20126;-71
2022/04/12 10:52:37;;;;;;;2.25;1.35;;;19.00;91.90;;;;;;7387992;19;20134;-76
2022/04/12 10:55:06;;;;;;;2.08;1.27;;;19.10;91.00;;;;;;7390183;19;20150;-72
2022/04/12 10:57:32;;;;;;;2.38;1.40;;;19.20;90.90;;;;;;7388897;19;20127;-75
2022/04/12 11:00:13;;;;;;;2.45;1.45;;;19.30;90.20;;;;;;7388226;19;20135;-78
2022/04/12 11:02:44;;;;;;;1.40;1.13;;;19.50;90.40;;;;;;7386945;19;20772;-79
2022/04/12 11:05:29;;;;;;;1.80;1.13;;;19.50;90.40;;;;;;7387813;19;20447;-77
2022/04/12 11:07:54;;;;;;;2.90;1.13;;;19.70;88.80;;;;;;7385020;19;20138;-79
2022/04/12 11:10:22;;;;;;;2.13;1.17;;;19.70;87.50;;;;;;7387942;19;20145;-71
2022/04/12 11:12:49;;;;;;;1.88;1.30;;;19.80;86.80;;;;;;7384480;19;20134;-79
2022/04/12 11:15:22;;;;;;;3.80;1.25;;;19.80;86.60;;;;;;7388849;19;20146;-71
2022/04/12 11:17:48;;;;;;;1.20;1.10;;;19.90;85.90;;;;;;7390288;19;20545;-76
2022/04/12 11:20:21;;;;;;;1.95;1.45;;;19.70;86.40;;;;;;7386040;19;20131;-79
2022/04/12 11:22:56;;;;;;;4.93;4.32;;;19.70;85.90;;;;;;7387500;19;20853;-79
2022/04/12 11:25:22;;;;;;;2.42;1.42;;;19.80;85.10;;;;;;7387792;19;20130;-71
2022/04/12 11:27:59;;;;;;;2.70;1.50;;;19.90;86.40;;;;;;7384893;19;20135;-77
2022/04/12 11:30:26;;;;;;;1.73;1.27;;;19.90;85.80;;;;;;7384644;19;20206;-78
2022/04/12 11:32:56;;;;;;;1.17;1.00;;;19.90;85.80;;;;;;7384623;19;20138;-77
2022/04/12 11:35:23;;;;;;;1.10;0.80;;;20.00;84.00;;;;;;7386425;19;20662;-78
2022/04/12 11:37:50;;;;;;;2.55;1.50;;;20.20;84.10;;;;;;7392785;19;20142;-72
2022/04/12 11:40:16;;;;;;;3.92;1.55;;;20.10;84.90;;;;;;7387425;19;20143;-71
2022/04/12 11:42:43;;;;;;;3.13;1.20;;;20.10;84.40;;;;;;7384289;19;20550;-72
2022/04/12 11:45:11;;;;;;;1.63;1.17;;;20.00;85.60;;;;;;7386555;19;20158;-71
2022/04/12 11:47:39;;;;;;;1.67;1.02;;;20.20;85.70;;;;;;7385762;19;20131;-78
2022/04/12 11:50:18;;;;;;;1.27;0.90;;;20.20;85.10;;;;;;7384585;19;20698;-73
2022/04/12 11:52:45;;;;;;;2.63;1.17;;;20.20;85.40;;;;;;7382789;19;20153;-71
2022/04/12 11:55:12;;;;;;;2.25;1.00;;;20.30;87.00;;;;;;7390854;19;20138;-72
2022/04/12 11:57:38;;;;;;;1.10;1.00;;;20.50;85.70;;;;;;7385860;19;20198;-72
2022/04/12 12:00:04;;;;;;;2.58;1.25;;;20.60;86.00;;;;;;7392538;19;20541;-78
2022/04/12 12:02:35;;;;;;;2.13;0.95;;;20.60;85.60;;;;;;7399193;19;20186;-71
2022/04/12 12:05:07;;;;;;;1.80;1.05;;;20.50;85.90;;;;;;7393149;19;20158;-78
2022/04/12 12:07:36;;;;;;;3.85;1.33;;;20.50;85.80;;;;;;7393032;19;20459;-78
2022/04/12 12:10:09;;;;;;;1.48;0.90;;;20.50;85.80;;;;;;7391040;19;20229;-72
2022/04/12 12:12:40;;;;;;;1.02;0.90;;;20.60;86.40;;;;;;7387962;19;20136;-71
2022/04/12 12:15:16;;;;;;;2.35;1.27;;;20.60;85.20;;;;;;7393188;19;20152;-72
2022/04/12 12:17:46;;;;;;;1.98;1.27;;;20.70;85.80;;;;;;7393827;19;20609;-78
2022/04/12 12:20:13;;;;;;;2.53;1.25;;;20.80;86.40;;;;;;7391745;19;20223;-73
2022/04/12 12:22:41;;;;;;;3.17;1.10;;;20.90;86.50;;;;;;7392814;19;20127;-77
2022/04/12 12:25:07;;;;;;;2.13;0.90;;;20.90;86.10;;;;;;7397168;19;20134;-78
2022/04/12 12:27:37;;;;;;;2.75;1.65;;;20.90;86.20;;;;;;7395145;19;20150;-76
2022/04/12 12:30:10;;;;;;;4.47;0.93;;;20.90;86.50;;;;;;7388518;19;20170;-72
2022/04/12 12:32:40;;;;;;;1.70;1.10;;;21.10;85.20;;;;;;7388077;19;20156;-77
2022/04/12 12:35:15;;;;;;;1.65;1.08;;;21.20;86.10;;;;;;7392124;19;20603;-78
2022/04/12 12:37:43;;;;;;;2.08;1.30;;;21.30;87.50;;;;;;7389936;19;20134;-77
2022/04/12 12:40:21;;;;;;;2.72;0.90;;;21.40;85.10;;;;;;7388890;19;20896;-78
2022/04/12 12:42:49;;;;;;;1.15;1.05;;;21.50;83.80;;;;;;7392014;19;20141;-78
2022/04/12 12:45:25;;;;;;;2.20;1.00;;;21.30;84.00;;;;;;7391444;19;20142;-78
2022/04/12 12:47:56;;;;;;;1.77;1.02;;;21.20;84.50;;;;;;7393378;19;20242;-70
2022/04/12 12:50:24;;;;;;;2.45;0.95;;;21.20;85.40;;;;;;7394770;19;20254;-71
2022/04/12 12:53:00;;;;;;;1.27;1.00;;;21.20;85.00;;;;;;7386658;19;20214;-76
2022/04/12 12:56:00;;;;;;;1.77;1.10;;;21.30;85.40;;;;;;7394100;19;20486;-77